ΕΜΥ, Εθνική Μετεωρολογική Υπηρεσία - Δελτία Καιρού, Προγνώσεις

ΑΕΡΟΝΑΥΤΙΛΙΑ

GREEK AIRPORTS CODES

TAF LGBL 271100Z 2712/2721 11012KT 9999 FEW025 TEMPO 2712/2716 FEW025 BKN080=

EUROPEAN AIRPORTS CODES

TAF LGKO 271100Z 2712/2812 VRB05KT 9999 FEW025 BECMG 2804/2806 14010KT=